sensor_id;sensor_type;location;lat;lon;timestamp;temperature;humidity
54796;DHT22;40693;43.884;20.340;2022-08-16T00:00:49;589.50;2432.00
54796;DHT22;40693;43.884;20.340;2022-08-16T00:03:16;589.40;2432.00
54796;DHT22;40693;43.884;20.340;2022-08-16T00:05:43;589.50;2432.00
54796;DHT22;40693;43.884;20.340;2022-08-16T00:08:09;589.60;2432.00
54796;DHT22;40693;43.884;20.340;2022-08-16T00:10:35;589.50;2432.00
54796;DHT22;40693;43.884;20.340;2022-08-16T00:13:04;589.40;2432.00
54796;DHT22;40693;43.884;20.340;2022-08-16T00:15:46;589.40;2432.00
54796;DHT22;40693;43.884;20.340;2022-08-16T00:18:15;589.30;2432.00
54796;DHT22;40693;43.884;20.340;2022-08-16T00:20:43;589.20;2432.00
54796;DHT22;40693;43.884;20.340;2022-08-16T00:23:10;589.20;2432.00
54796;DHT22;40693;43.884;20.340;2022-08-16T00:25:37;589.20;2432.00
54796;DHT22;40693;43.884;20.340;2022-08-16T00:28:04;589.10;2432.00
54796;DHT22;40693;43.884;20.340;2022-08-16T00:30:30;589.20;2432.00
54796;DHT22;40693;43.884;20.340;2022-08-16T00:32:58;589.20;2432.00
54796;DHT22;40693;43.884;20.340;2022-08-16T00:35:27;589.20;2432.00
54796;DHT22;40693;43.884;20.340;2022-08-16T00:37:54;589.20;2432.00
54796;DHT22;40693;43.884;20.340;2022-08-16T00:40:27;589.20;2432.00
54796;DHT22;40693;43.884;20.340;2022-08-16T00:42:53;589.20;2432.00
54796;DHT22;40693;43.884;20.340;2022-08-16T00:48:07;589.10;2432.00
54796;DHT22;40693;43.884;20.340;2022-08-16T00:50:35;589.00;2432.00
54796;DHT22;40693;43.884;20.340;2022-08-16T00:53:03;589.00;2432.00
54796;DHT22;40693;43.884;20.340;2022-08-16T00:55:29;589.00;2432.00
54796;DHT22;40693;43.884;20.340;2022-08-16T00:57:56;589.00;2432.00
54796;DHT22;40693;43.884;20.340;2022-08-16T01:00:23;589.00;2432.00
54796;DHT22;40693;43.884;20.340;2022-08-16T01:02:53;589.10;2432.00
54796;DHT22;40693;43.884;20.340;2022-08-16T01:05:19;588.90;2432.00
54796;DHT22;40693;43.884;20.340;2022-08-16T01:07:45;588.90;2432.00
54796;DHT22;40693;43.884;20.340;2022-08-16T01:10:11;588.90;2432.00
54796;DHT22;40693;43.884;20.340;2022-08-16T01:12:37;589.00;2432.00
54796;DHT22;40693;43.884;20.340;2022-08-16T01:15:03;589.00;2432.00
54796;DHT22;40693;43.884;20.340;2022-08-16T01:17:30;588.90;2432.00
54796;DHT22;40693;43.884;20.340;2022-08-16T01:20:00;588.90;2432.00
54796;DHT22;40693;43.884;20.340;2022-08-16T01:22:57;588.90;2432.00
54796;DHT22;40693;43.884;20.340;2022-08-16T01:25:36;588.80;2432.00
54796;DHT22;40693;43.884;20.340;2022-08-16T01:28:07;564.10;2432.00
54796;DHT22;40693;43.884;20.340;2022-08-16T01:30:39;588.80;2432.00
54796;DHT22;40693;43.884;20.340;2022-08-16T01:33:06;564.10;2432.00
54796;DHT22;40693;43.884;20.340;2022-08-16T01:35:40;564.10;2432.00
54796;DHT22;40693;43.884;20.340;2022-08-16T01:38:16;564.10;2432.00
54796;DHT22;40693;43.884;20.340;2022-08-16T01:40:42;564.10;2432.00
54796;DHT22;40693;43.884;20.340;2022-08-16T01:43:08;564.10;2432.00
54796;DHT22;40693;43.884;20.340;2022-08-16T01:45:34;564.10;2432.00
54796;DHT22;40693;43.884;20.340;2022-08-16T01:48:00;564.10;2432.00
54796;DHT22;40693;43.884;20.340;2022-08-16T01:50:27;564.10;2432.00
54796;DHT22;40693;43.884;20.340;2022-08-16T01:52:53;564.00;2432.00
54796;DHT22;40693;43.884;20.340;2022-08-16T01:55:23;564.10;2432.00
54796;DHT22;40693;43.884;20.340;2022-08-16T01:57:49;563.80;2432.00
54796;DHT22;40693;43.884;20.340;2022-08-16T02:00:16;563.80;2432.00
54796;DHT22;40693;43.884;20.340;2022-08-16T02:02:42;563.70;2432.00
54796;DHT22;40693;43.884;20.340;2022-08-16T02:05:09;563.70;2432.00
54796;DHT22;40693;43.884;20.340;2022-08-16T02:07:35;563.50;2432.00
54796;DHT22;40693;43.884;20.340;2022-08-16T02:10:04;563.70;2432.00
54796;DHT22;40693;43.884;20.340;2022-08-16T02:12:32;563.60;2432.00
54796;DHT22;40693;43.884;20.340;2022-08-16T02:14:58;563.70;2432.00
54796;DHT22;40693;43.884;20.340;2022-08-16T02:17:23;563.70;2432.00
54796;DHT22;40693;43.884;20.340;2022-08-16T02:19:49;563.70;2432.00
54796;DHT22;40693;43.884;20.340;2022-08-16T02:22:18;563.70;2432.00
54796;DHT22;40693;43.884;20.340;2022-08-16T02:24:44;563.70;2432.00
54796;DHT22;40693;43.884;20.340;2022-08-16T02:27:10;563.70;2432.00
54796;DHT22;40693;43.884;20.340;2022-08-16T02:29:36;563.70;2432.00
54796;DHT22;40693;43.884;20.340;2022-08-16T02:32:03;563.70;2432.00
54796;DHT22;40693;43.884;20.340;2022-08-16T02:34:29;563.70;2432.00
54796;DHT22;40693;43.884;20.340;2022-08-16T02:36:55;563.70;2432.00
54796;DHT22;40693;43.884;20.340;2022-08-16T02:39:21;563.60;2432.00
54796;DHT22;40693;43.884;20.340;2022-08-16T02:41:49;563.60;2432.00
54796;DHT22;40693;43.884;20.340;2022-08-16T02:44:15;563.60;2432.00
54796;DHT22;40693;43.884;20.340;2022-08-16T02:46:42;563.60;2432.00
54796;DHT22;40693;43.884;20.340;2022-08-16T02:49:08;563.60;2432.00
54796;DHT22;40693;43.884;20.340;2022-08-16T02:51:35;563.60;2432.00
54796;DHT22;40693;43.884;20.340;2022-08-16T02:54:03;563.60;2432.00
54796;DHT22;40693;43.884;20.340;2022-08-16T02:56:29;563.60;2432.00
54796;DHT22;40693;43.884;20.340;2022-08-16T02:58:55;563.60;2432.00
54796;DHT22;40693;43.884;20.340;2022-08-16T03:01:27;563.60;2432.00
54796;DHT22;40693;43.884;20.340;2022-08-16T03:03:55;563.60;2432.00
54796;DHT22;40693;43.884;20.340;2022-08-16T03:06:21;563.60;2432.00
54796;DHT22;40693;43.884;20.340;2022-08-16T03:08:49;563.60;2432.00
54796;DHT22;40693;43.884;20.340;2022-08-16T03:11:15;563.50;2432.00
54796;DHT22;40693;43.884;20.340;2022-08-16T03:13:44;563.60;2432.00
54796;DHT22;40693;43.884;20.340;2022-08-16T03:16:10;563.50;2432.00
54796;DHT22;40693;43.884;20.340;2022-08-16T03:18:37;563.60;2432.00
54796;DHT22;40693;43.884;20.340;2022-08-16T03:21:03;563.50;2432.00
54796;DHT22;40693;43.884;20.340;2022-08-16T03:23:29;563.40;2432.00
54796;DHT22;40693;43.884;20.340;2022-08-16T03:25:55;563.30;2432.00
54796;DHT22;40693;43.884;20.340;2022-08-16T03:28:20;563.20;2432.00
54796;DHT22;40693;43.884;20.340;2022-08-16T03:30:46;563.20;2432.00
54796;DHT22;40693;43.884;20.340;2022-08-16T03:33:12;563.20;2432.00
54796;DHT22;40693;43.884;20.340;2022-08-16T03:35:39;563.20;2432.00
54796;DHT22;40693;43.884;20.340;2022-08-16T03:38:08;563.20;2432.00
54796;DHT22;40693;43.884;20.340;2022-08-16T03:40:34;563.20;2432.00
54796;DHT22;40693;43.884;20.340;2022-08-16T03:43:04;563.20;2432.00
54796;DHT22;40693;43.884;20.340;2022-08-16T03:45:31;563.20;2432.00
54796;DHT22;40693;43.884;20.340;2022-08-16T03:47:58;563.20;2432.00
54796;DHT22;40693;43.884;20.340;2022-08-16T03:50:24;563.20;2432.00
54796;DHT22;40693;43.884;20.340;2022-08-16T03:52:49;563.20;2432.00
54796;DHT22;40693;43.884;20.340;2022-08-16T03:55:15;563.20;2432.00
54796;DHT22;40693;43.884;20.340;2022-08-16T03:57:41;563.20;2432.00
54796;DHT22;40693;43.884;20.340;2022-08-16T04:00:18;538.50;2406.40
54796;DHT22;40693;43.884;20.340;2022-08-16T04:02:44;538.50;2406.40
54796;DHT22;40693;43.884;20.340;2022-08-16T04:05:12;538.50;2406.40
54796;DHT22;40693;43.884;20.340;2022-08-16T04:07:38;538.50;2406.40
54796;DHT22;40693;43.884;20.340;2022-08-16T04:10:06;538.50;2406.40
54796;DHT22;40693;43.884;20.340;2022-08-16T04:12:32;538.50;2406.40
54796;DHT22;40693;43.884;20.340;2022-08-16T04:14:59;538.50;2406.40
54796;DHT22;40693;43.884;20.340;2022-08-16T04:17:27;538.50;2406.40
54796;DHT22;40693;43.884;20.340;2022-08-16T04:19:54;563.40;2432.00
54796;DHT22;40693;43.884;20.340;2022-08-16T04:22:20;538.50;2406.40
54796;DHT22;40693;43.884;20.340;2022-08-16T04:24:47;538.50;2406.40
54796;DHT22;40693;43.884;20.340;2022-08-16T04:27:12;538.50;2406.40
54796;DHT22;40693;43.884;20.340;2022-08-16T04:29:38;538.50;2406.40
54796;DHT22;40693;43.884;20.340;2022-08-16T04:32:04;538.40;2406.40
54796;DHT22;40693;43.884;20.340;2022-08-16T04:34:32;538.40;2406.40
54796;DHT22;40693;43.884;20.340;2022-08-16T04:36:59;538.40;2406.40
54796;DHT22;40693;43.884;20.340;2022-08-16T04:39:25;538.40;2406.40
54796;DHT22;40693;43.884;20.340;2022-08-16T04:41:51;538.50;2406.40
54796;DHT22;40693;43.884;20.340;2022-08-16T04:44:17;538.50;2406.40
54796;DHT22;40693;43.884;20.340;2022-08-16T04:46:43;538.50;2406.40
54796;DHT22;40693;43.884;20.340;2022-08-16T04:49:09;538.50;2406.40
54796;DHT22;40693;43.884;20.340;2022-08-16T04:51:37;538.50;2406.40
54796;DHT22;40693;43.884;20.340;2022-08-16T04:54:06;538.50;2406.40
54796;DHT22;40693;43.884;20.340;2022-08-16T04:56:32;563.20;2432.00
54796;DHT22;40693;43.884;20.340;2022-08-16T04:58:58;563.20;2432.00
54796;DHT22;40693;43.884;20.340;2022-08-16T05:01:24;563.20;2432.00
54796;DHT22;40693;43.884;20.340;2022-08-16T05:03:50;563.20;2432.00
54796;DHT22;40693;43.884;20.340;2022-08-16T05:06:16;563.20;2432.00
54796;DHT22;40693;43.884;20.340;2022-08-16T05:08:42;563.20;2432.00
54796;DHT22;40693;43.884;20.340;2022-08-16T05:11:11;563.20;2432.00
54796;DHT22;40693;43.884;20.340;2022-08-16T05:13:40;563.20;2432.00
54796;DHT22;40693;43.884;20.340;2022-08-16T05:16:06;563.30;2432.00
54796;DHT22;40693;43.884;20.340;2022-08-16T05:18:35;563.30;2432.00
54796;DHT22;40693;43.884;20.340;2022-08-16T05:21:02;563.20;2432.00
54796;DHT22;40693;43.884;20.340;2022-08-16T05:23:28;563.20;2432.00
54796;DHT22;40693;43.884;20.340;2022-08-16T05:25:54;538.50;2406.40
54796;DHT22;40693;43.884;20.340;2022-08-16T05:28:19;563.20;2432.00
54796;DHT22;40693;43.884;20.340;2022-08-16T05:30:45;563.20;2432.00
54796;DHT22;40693;43.884;20.340;2022-08-16T05:33:11;563.30;2432.00
54796;DHT22;40693;43.884;20.340;2022-08-16T05:35:37;563.30;2432.00
54796;DHT22;40693;43.884;20.340;2022-08-16T05:38:03;563.50;2432.00
54796;DHT22;40693;43.884;20.340;2022-08-16T05:40:29;563.50;2432.00
54796;DHT22;40693;43.884;20.340;2022-08-16T05:42:55;563.60;2432.00
54796;DHT22;40693;43.884;20.340;2022-08-16T05:45:21;563.60;2432.00
54796;DHT22;40693;43.884;20.340;2022-08-16T05:47:47;563.60;2432.00
54796;DHT22;40693;43.884;20.340;2022-08-16T05:50:12;563.70;2432.00
54796;DHT22;40693;43.884;20.340;2022-08-16T05:52:38;563.70;2432.00
54796;DHT22;40693;43.884;20.340;2022-08-16T05:55:05;563.70;2432.00
54796;DHT22;40693;43.884;20.340;2022-08-16T05:57:31;563.80;2432.00
54796;DHT22;40693;43.884;20.340;2022-08-16T05:59:57;563.90;2432.00
54796;DHT22;40693;43.884;20.340;2022-08-16T06:02:23;564.00;2432.00
54796;DHT22;40693;43.884;20.340;2022-08-16T06:04:52;564.00;2432.00
54796;DHT22;40693;43.884;20.340;2022-08-16T06:07:18;564.10;2432.00
54796;DHT22;40693;43.884;20.340;2022-08-16T06:09:43;588.80;2432.00
54796;DHT22;40693;43.884;20.340;2022-08-16T06:12:13;588.90;2432.00
54796;DHT22;40693;43.884;20.340;2022-08-16T06:14:39;589.00;2432.00
54796;DHT22;40693;43.884;20.340;2022-08-16T06:17:05;589.00;2432.00
54796;DHT22;40693;43.884;20.340;2022-08-16T06:19:31;589.20;2432.00
54796;DHT22;40693;43.884;20.340;2022-08-16T06:21:56;589.20;2432.00
54796;DHT22;40693;43.884;20.340;2022-08-16T06:24:22;589.20;2432.00
54796;DHT22;40693;43.884;20.340;2022-08-16T06:26:48;589.30;2432.00
54796;DHT22;40693;43.884;20.340;2022-08-16T06:29:13;589.40;2432.00
54796;DHT22;40693;43.884;20.340;2022-08-16T06:31:39;589.50;2432.00
54796;DHT22;40693;43.884;20.340;2022-08-16T06:34:05;589.60;2432.00
54796;DHT22;40693;43.884;20.340;2022-08-16T06:36:31;589.60;2432.00
54796;DHT22;40693;43.884;20.340;2022-08-16T06:38:57;589.70;2432.00
54796;DHT22;40693;43.884;20.340;2022-08-16T06:41:24;589.70;2432.00
54796;DHT22;40693;43.884;20.340;2022-08-16T06:43:50;614.40;2432.00
54796;DHT22;40693;43.884;20.340;2022-08-16T06:46:25;614.50;2432.00
54796;DHT22;40693;43.884;20.340;2022-08-16T06:48:51;614.50;2432.00
54796;DHT22;40693;43.884;20.340;2022-08-16T06:51:17;614.50;2432.00
54796;DHT22;40693;43.884;20.340;2022-08-16T06:53:43;614.70;2432.00
54796;DHT22;40693;43.884;20.340;2022-08-16T06:56:08;614.60;2432.00
54796;DHT22;40693;43.884;20.340;2022-08-16T06:58:35;614.70;2432.00
54796;DHT22;40693;43.884;20.340;2022-08-16T07:01:01;614.80;2432.00
54796;DHT22;40693;43.884;20.340;2022-08-16T07:03:28;614.80;2432.00
54796;DHT22;40693;43.884;20.340;2022-08-16T07:05:54;614.90;2432.00
54796;DHT22;40693;43.884;20.340;2022-08-16T07:08:22;615.00;2432.00
54796;DHT22;40693;43.884;20.340;2022-08-16T07:10:49;615.10;2432.00
54796;DHT22;40693;43.884;20.340;2022-08-16T07:13:15;615.20;2432.00
54796;DHT22;40693;43.884;20.340;2022-08-16T07:15:41;615.30;2432.00
54796;DHT22;40693;43.884;20.340;2022-08-16T07:18:07;615.30;2432.00
54796;DHT22;40693;43.884;20.340;2022-08-16T07:20:35;640.00;2432.00
54796;DHT22;40693;43.884;20.340;2022-08-16T07:23:03;640.10;2432.00
54796;DHT22;40693;43.884;20.340;2022-08-16T07:25:32;640.30;2432.00
54796;DHT22;40693;43.884;20.340;2022-08-16T07:27:58;640.30;2432.00
54796;DHT22;40693;43.884;20.340;2022-08-16T07:30:25;640.40;2432.00
54796;DHT22;40693;43.884;20.340;2022-08-16T07:32:52;640.60;2432.00
54796;DHT22;40693;43.884;20.340;2022-08-16T07:35:18;640.60;2432.00
54796;DHT22;40693;43.884;20.340;2022-08-16T07:37:44;640.70;2432.00
54796;DHT22;40693;43.884;20.340;2022-08-16T07:40:11;640.80;2432.00
54796;DHT22;40693;43.884;20.340;2022-08-16T07:42:37;665.70;2432.00
54796;DHT22;40693;43.884;20.340;2022-08-16T07:45:04;665.70;2432.00
54796;DHT22;40693;43.884;20.340;2022-08-16T07:47:30;665.70;2432.00
54796;DHT22;40693;43.884;20.340;2022-08-16T07:49:56;665.80;2432.00
54796;DHT22;40693;43.884;20.340;2022-08-16T07:52:22;665.90;2432.00
54796;DHT22;40693;43.884;20.340;2022-08-16T07:54:48;666.10;2432.00
54796;DHT22;40693;43.884;20.340;2022-08-16T07:57:14;666.10;2432.00
54796;DHT22;40693;43.884;20.340;2022-08-16T07:59:40;666.30;2432.00
54796;DHT22;40693;43.884;20.340;2022-08-16T08:02:08;666.40;2432.00
54796;DHT22;40693;43.884;20.340;2022-08-16T08:04:33;666.50;2432.00
54796;DHT22;40693;43.884;20.340;2022-08-16T08:06:59;691.20;2432.00
54796;DHT22;40693;43.884;20.340;2022-08-16T08:09:25;691.30;2432.00
54796;DHT22;40693;43.884;20.340;2022-08-16T08:11:51;691.60;2432.00
54796;DHT22;40693;43.884;20.340;2022-08-16T08:14:16;691.60;2432.00
54796;DHT22;40693;43.884;20.340;2022-08-16T08:16:42;691.80;2432.00
54796;DHT22;40693;43.884;20.340;2022-08-16T08:19:08;691.90;2432.00
54796;DHT22;40693;43.884;20.340;2022-08-16T08:21:39;692.00;2432.00
54796;DHT22;40693;43.884;20.340;2022-08-16T08:24:07;692.10;2432.00
54796;DHT22;40693;43.884;20.340;2022-08-16T08:26:34;716.80;2432.00
54796;DHT22;40693;43.884;20.340;2022-08-16T08:28:59;717.00;2432.00
54796;DHT22;40693;43.884;20.340;2022-08-16T08:31:25;717.00;2432.00
54796;DHT22;40693;43.884;20.340;2022-08-16T08:33:51;717.10;2432.00
54796;DHT22;40693;43.884;20.340;2022-08-16T08:36:28;717.20;2432.00
54796;DHT22;40693;43.884;20.340;2022-08-16T08:38:54;717.30;2432.00
54796;DHT22;40693;43.884;20.340;2022-08-16T08:41:20;717.50;2432.00
54796;DHT22;40693;43.884;20.340;2022-08-16T08:43:47;717.60;2432.00
54796;DHT22;40693;43.884;20.340;2022-08-16T08:46:13;717.70;2432.00
54796;DHT22;40693;43.884;20.340;2022-08-16T08:48:39;742.50;2432.00
54796;DHT22;40693;43.884;20.340;2022-08-16T08:51:06;742.50;2432.00
54796;DHT22;40693;43.884;20.340;2022-08-16T08:53:33;742.70;2432.00
54796;DHT22;40693;43.884;20.340;2022-08-16T08:56:01;742.90;2432.00
54796;DHT22;40693;43.884;20.340;2022-08-16T08:58:27;743.00;2432.00
54796;DHT22;40693;43.884;20.340;2022-08-16T09:00:52;743.10;2432.00
54796;DHT22;40693;43.884;20.340;2022-08-16T09:03:18;743.20;2432.00
54796;DHT22;40693;43.884;20.340;2022-08-16T09:05:44;768.00;2432.00
54796;DHT22;40693;43.884;20.340;2022-08-16T09:08:10;768.10;2432.00
54796;DHT22;40693;43.884;20.340;2022-08-16T09:10:36;768.10;2432.00
54796;DHT22;40693;43.884;20.340;2022-08-16T09:13:03;768.40;2432.00
54796;DHT22;40693;43.884;20.340;2022-08-16T09:15:30;768.40;2176.00
54796;DHT22;40693;43.884;20.340;2022-08-16T09:17:56;768.50;2150.40
54796;DHT22;40693;43.884;20.340;2022-08-16T09:20:24;768.60;2432.00
54796;DHT22;40693;43.884;20.340;2022-08-16T09:22:50;768.90;2355.20
54796;DHT22;40693;43.884;20.340;2022-08-16T09:25:17;768.90;2355.20
54796;DHT22;40693;43.884;20.340;2022-08-16T09:27:43;793.60;2355.20
54796;DHT22;40693;43.884;20.340;2022-08-16T09:30:09;793.70;2329.60
54796;DHT22;40693;43.884;20.340;2022-08-16T09:32:36;793.70;2278.40
54796;DHT22;40693;43.884;20.340;2022-08-16T09:35:03;793.70;2278.40
54796;DHT22;40693;43.884;20.340;2022-08-16T09:37:30;793.70;2278.40
54796;DHT22;40693;43.884;20.340;2022-08-16T09:39:57;793.70;2252.80
54796;DHT22;40693;43.884;20.340;2022-08-16T09:42:24;793.80;2252.80
54796;DHT22;40693;43.884;20.340;2022-08-16T09:44:50;793.90;2304.00
54796;DHT22;40693;43.884;20.340;2022-08-16T09:47:16;793.90;2329.60
54796;DHT22;40693;43.884;20.340;2022-08-16T09:49:42;793.90;2252.80
54796;DHT22;40693;43.884;20.340;2022-08-16T09:52:09;794.00;2304.00
54796;DHT22;40693;43.884;20.340;2022-08-16T09:54:35;794.10;2278.40
54796;DHT22;40693;43.884;20.340;2022-08-16T09:57:02;794.20;2176.00
54796;DHT22;40693;43.884;20.340;2022-08-16T09:59:27;794.30;2150.40
54796;DHT22;40693;43.884;20.340;2022-08-16T10:01:53;794.40;2124.80
54796;DHT22;40693;43.884;20.340;2022-08-16T10:04:20;794.50;2048.00
54796;DHT22;40693;43.884;20.340;2022-08-16T10:06:46;819.30;2099.20
54796;DHT22;40693;43.884;20.340;2022-08-16T10:09:14;819.50;2022.40
54796;DHT22;40693;43.884;20.340;2022-08-16T10:11:41;819.70;1894.40
54796;DHT22;40693;43.884;20.340;2022-08-16T10:14:26;819.80;1971.20
54796;DHT22;40693;43.884;20.340;2022-08-16T10:17:02;820.10;2022.40
54796;DHT22;40693;43.884;20.340;2022-08-16T10:19:29;844.90;1996.80
54796;DHT22;40693;43.884;20.340;2022-08-16T10:21:56;844.90;1945.60
54796;DHT22;40693;43.884;20.340;2022-08-16T10:24:22;845.00;1920.00
54796;DHT22;40693;43.884;20.340;2022-08-16T10:26:48;845.10;1945.60
54796;DHT22;40693;43.884;20.340;2022-08-16T10:29:14;845.20;1945.60
54796;DHT22;40693;43.884;20.340;2022-08-16T10:31:41;845.20;1920.00
54796;DHT22;40693;43.884;20.340;2022-08-16T10:34:07;845.40;1868.80
54796;DHT22;40693;43.884;20.340;2022-08-16T10:36:33;845.40;1894.40
54796;DHT22;40693;43.884;20.340;2022-08-16T10:38:59;845.50;1894.40
54796;DHT22;40693;43.884;20.340;2022-08-16T10:41:25;845.60;1843.20
54796;DHT22;40693;43.884;20.340;2022-08-16T10:43:51;845.70;1817.60
54796;DHT22;40693;43.884;20.340;2022-08-16T10:46:17;845.70;1817.60
54796;DHT22;40693;43.884;20.340;2022-08-16T10:48:45;870.40;1817.60
54796;DHT22;40693;43.884;20.340;2022-08-16T10:51:11;870.40;1740.80
54796;DHT22;40693;43.884;20.340;2022-08-16T10:53:37;870.50;1664.00
54796;DHT22;40693;43.884;20.340;2022-08-16T10:56:05;870.60;1587.20
54796;DHT22;40693;43.884;20.340;2022-08-16T10:58:32;870.70;1638.40
54796;DHT22;40693;43.884;20.340;2022-08-16T11:00:58;870.80;1612.80
54796;DHT22;40693;43.884;20.340;2022-08-16T11:03:24;870.80;1587.20
54796;DHT22;40693;43.884;20.340;2022-08-16T11:05:53;871.10;1459.20
54796;DHT22;40693;43.884;20.340;2022-08-16T11:08:19;871.10;1561.60
54796;DHT22;40693;43.884;20.340;2022-08-16T11:10:46;871.20;1536.00
54796;DHT22;40693;43.884;20.340;2022-08-16T11:13:18;871.20;1484.80
54796;DHT22;40693;43.884;20.340;2022-08-16T11:15:44;871.20;1510.40
54796;DHT22;40693;43.884;20.340;2022-08-16T11:18:11;871.20;1459.20
54796;DHT22;40693;43.884;20.340;2022-08-16T11:20:38;871.20;1305.60
54796;DHT22;40693;43.884;20.340;2022-08-16T11:23:04;871.00;1331.20
54796;DHT22;40693;43.884;20.340;2022-08-16T11:25:31;870.90;1331.20
54796;DHT22;40693;43.884;20.340;2022-08-16T11:27:58;870.90;1382.40
54796;DHT22;40693;43.884;20.340;2022-08-16T11:30:25;871.00;1331.20
54796;DHT22;40693;43.884;20.340;2022-08-16T11:32:52;871.00;1305.60
54796;DHT22;40693;43.884;20.340;2022-08-16T11:35:21;871.00;1305.60
54796;DHT22;40693;43.884;20.340;2022-08-16T11:37:52;871.20;1305.60
54796;DHT22;40693;43.884;20.340;2022-08-16T11:40:19;896.00;1305.60
54796;DHT22;40693;43.884;20.340;2022-08-16T11:42:45;896.00;1305.60
54796;DHT22;40693;43.884;20.340;2022-08-16T11:45:11;896.00;1305.60
54796;DHT22;40693;43.884;20.340;2022-08-16T11:47:37;896.00;1305.60
54796;DHT22;40693;43.884;20.340;2022-08-16T11:50:07;871.20;1305.60
54796;DHT22;40693;43.884;20.340;2022-08-16T11:52:37;896.00;1305.60
54796;DHT22;40693;43.884;20.340;2022-08-16T11:55:05;896.00;1280.00
54796;DHT22;40693;43.884;20.340;2022-08-16T11:57:32;896.10;1280.00
54796;DHT22;40693;43.884;20.340;2022-08-16T11:59:58;896.10;1280.00
54796;DHT22;40693;43.884;20.340;2022-08-16T12:02:25;896.00;1280.00
54796;DHT22;40693;43.884;20.340;2022-08-16T12:04:51;896.00;1280.00
54796;DHT22;40693;43.884;20.340;2022-08-16T12:07:18;896.00;1280.00
54796;DHT22;40693;43.884;20.340;2022-08-16T12:09:44;896.10;1305.60
54796;DHT22;40693;43.884;20.340;2022-08-16T12:12:11;896.20;1280.00
54796;DHT22;40693;43.884;20.340;2022-08-16T12:14:37;896.20;1280.00
54796;DHT22;40693;43.884;20.340;2022-08-16T12:17:04;896.10;1254.40
54796;DHT22;40693;43.884;20.340;2022-08-16T12:19:30;871.20;1203.20
54796;DHT22;40693;43.884;20.340;2022-08-16T12:21:56;896.00;1177.60
54796;DHT22;40693;43.884;20.340;2022-08-16T12:24:23;871.20;1152.00
54796;DHT22;40693;43.884;20.340;2022-08-16T12:26:50;871.20;1152.00
54796;DHT22;40693;43.884;20.340;2022-08-16T12:29:16;871.20;1203.20
54796;DHT22;40693;43.884;20.340;2022-08-16T12:31:42;871.20;1203.20
54796;DHT22;40693;43.884;20.340;2022-08-16T12:34:07;871.20;1203.20
54796;DHT22;40693;43.884;20.340;2022-08-16T12:36:33;871.10;1152.00
54796;DHT22;40693;43.884;20.340;2022-08-16T12:39:01;871.10;1203.20
54796;DHT22;40693;43.884;20.340;2022-08-16T12:41:27;871.00;1177.60
54796;DHT22;40693;43.884;20.340;2022-08-16T12:43:54;871.00;1203.20
54796;DHT22;40693;43.884;20.340;2022-08-16T12:46:20;871.00;1203.20
54796;DHT22;40693;43.884;20.340;2022-08-16T12:48:46;870.90;1228.80
54796;DHT22;40693;43.884;20.340;2022-08-16T12:51:36;870.90;1228.80
54796;DHT22;40693;43.884;20.340;2022-08-16T12:54:04;870.80;1228.80
54796;DHT22;40693;43.884;20.340;2022-08-16T12:56:34;870.90;1228.80
54796;DHT22;40693;43.884;20.340;2022-08-16T12:59:05;870.90;1203.20
54796;DHT22;40693;43.884;20.340;2022-08-16T13:01:35;871.00;1228.80
54796;DHT22;40693;43.884;20.340;2022-08-16T13:04:03;871.00;1177.60
54796;DHT22;40693;43.884;20.340;2022-08-16T13:12:22;871.00;1177.60
54796;DHT22;40693;43.884;20.340;2022-08-16T13:14:51;871.00;1203.20
54796;DHT22;40693;43.884;20.340;2022-08-16T13:17:21;871.10;1177.60
54796;DHT22;40693;43.884;20.340;2022-08-16T13:19:50;871.20;1228.80
54796;DHT22;40693;43.884;20.340;2022-08-16T13:22:17;871.20;1177.60
54796;DHT22;40693;43.884;20.340;2022-08-16T13:24:43;871.20;1152.00
54796;DHT22;40693;43.884;20.340;2022-08-16T13:27:09;871.20;1152.00
54796;DHT22;40693;43.884;20.340;2022-08-16T13:29:34;896.00;1152.00
54796;DHT22;40693;43.884;20.340;2022-08-16T13:32:00;896.00;1177.60
54796;DHT22;40693;43.884;20.340;2022-08-16T13:34:26;896.20;1177.60
54796;DHT22;40693;43.884;20.340;2022-08-16T13:36:53;896.30;1152.00
54796;DHT22;40693;43.884;20.340;2022-08-16T13:39:18;896.40;1126.40
54796;DHT22;40693;43.884;20.340;2022-08-16T13:41:44;896.60;1126.40
54796;DHT22;40693;43.884;20.340;2022-08-16T13:44:10;896.70;1100.80
54796;DHT22;40693;43.884;20.340;2022-08-16T13:46:36;896.70;1100.80
54796;DHT22;40693;43.884;20.340;2022-08-16T13:49:02;896.70;1100.80
54796;DHT22;40693;43.884;20.340;2022-08-16T13:51:29;896.50;1100.80
54796;DHT22;40693;43.884;20.340;2022-08-16T13:53:57;896.70;1126.40
54796;DHT22;40693;43.884;20.340;2022-08-16T13:56:24;896.90;1100.80
54796;DHT22;40693;43.884;20.340;2022-08-16T13:58:50;921.70;1152.00
54796;DHT22;40693;43.884;20.340;2022-08-16T14:01:17;922.00;1100.80
54796;DHT22;40693;43.884;20.340;2022-08-16T14:03:43;922.00;1049.60
54796;DHT22;40693;43.884;20.340;2022-08-16T14:06:10;922.00;1075.20
54796;DHT22;40693;43.884;20.340;2022-08-16T14:08:37;922.00;1075.20
54796;DHT22;40693;43.884;20.340;2022-08-16T14:11:03;922.10;1075.20
54796;DHT22;40693;43.884;20.340;2022-08-16T14:13:31;922.00;1024.00
54796;DHT22;40693;43.884;20.340;2022-08-16T14:15:57;922.00;1049.60
54796;DHT22;40693;43.884;20.340;2022-08-16T14:18:22;922.00;1049.60
54796;DHT22;40693;43.884;20.340;2022-08-16T14:20:49;922.10;1100.80
54796;DHT22;40693;43.884;20.340;2022-08-16T14:23:15;922.20;1126.40
54796;DHT22;40693;43.884;20.340;2022-08-16T14:25:41;922.50;1152.00
54796;DHT22;40693;43.884;20.340;2022-08-16T14:28:07;947.20;1152.00
54796;DHT22;40693;43.884;20.340;2022-08-16T14:30:33;947.40;1152.00
54796;DHT22;40693;43.884;20.340;2022-08-16T14:32:59;947.50;1100.80
54796;DHT22;40693;43.884;20.340;2022-08-16T14:35:28;947.60;1126.40
54796;DHT22;40693;43.884;20.340;2022-08-16T14:37:54;947.80;1126.40
54796;DHT22;40693;43.884;20.340;2022-08-16T14:40:20;947.90;1075.20
54796;DHT22;40693;43.884;20.340;2022-08-16T14:42:47;947.90;1024.00